Terminal Aerodrome Forecast
Issued by NWS Detroit/Pontiac, MI

Home | Current Version | Previous Version | Text Only | Print | Product List | Glossary On
Versions: 1 2 3 4 5 6 7 8 9 10 11 12 13 14
000
FTUS43 KDTX 301720
TAFFNT
TAF
KFNT 301720Z 3018/0118 09012KT 4SM -RA BR OVC012
     FM302300 12012KT 3SM -RA BR BKN008 OVC014
     FM010200 10010KT 2SM SHRA BR OVC008
     FM011500 20020G30KT P6SM BKN022=

USA.gov is the U.S. government's official web portal to all federal, state and local government web resources and services.